sensor_id;sensor_type;location;lat;lon;timestamp;P1;durP1;ratioP1;P2;durP2;ratioP2
84121;SDS011;74217;51.106;17.084;2023-11-21T00:02:05;10.73;;;4.30;;
84121;SDS011;74217;51.106;17.084;2023-11-21T00:04:50;8.02;;;4.00;;
84121;SDS011;74217;51.106;17.084;2023-11-21T00:07:38;9.63;;;5.60;;
84121;SDS011;74217;51.106;17.084;2023-11-21T00:10:22;10.88;;;4.40;;
84121;SDS011;74217;51.106;17.084;2023-11-21T00:13:08;7.68;;;4.75;;
84121;SDS011;74217;51.106;17.084;2023-11-21T00:15:53;7.13;;;4.20;;
84121;SDS011;74217;51.106;17.084;2023-11-21T00:18:42;7.93;;;4.63;;
84121;SDS011;74217;51.106;17.084;2023-11-21T00:21:26;6.55;;;4.18;;
84121;SDS011;74217;51.106;17.084;2023-11-21T00:24:11;10.20;;;4.30;;
84121;SDS011;74217;51.106;17.084;2023-11-21T00:27:01;6.63;;;3.92;;
84121;SDS011;74217;51.106;17.084;2023-11-21T00:29:45;8.10;;;4.55;;
84121;SDS011;74217;51.106;17.084;2023-11-21T00:32:32;7.00;;;4.15;;
84121;SDS011;74217;51.106;17.084;2023-11-21T00:35:18;8.75;;;4.28;;
84121;SDS011;74217;51.106;17.084;2023-11-21T00:38:03;7.35;;;4.32;;
84121;SDS011;74217;51.106;17.084;2023-11-21T00:40:49;5.45;;;3.72;;
84121;SDS011;74217;51.106;17.084;2023-11-21T00:43:34;9.20;;;4.70;;
84121;SDS011;74217;51.106;17.084;2023-11-21T00:46:19;7.90;;;4.00;;
84121;SDS011;74217;51.106;17.084;2023-11-21T00:49:04;8.20;;;3.95;;
84121;SDS011;74217;51.106;17.084;2023-11-21T00:51:48;11.60;;;5.57;;
84121;SDS011;74217;51.106;17.084;2023-11-21T00:54:34;7.32;;;4.57;;
84121;SDS011;74217;51.106;17.084;2023-11-21T00:57:18;8.00;;;4.20;;
84121;SDS011;74217;51.106;17.084;2023-11-21T01:00:03;10.88;;;4.80;;
84121;SDS011;74217;51.106;17.084;2023-11-21T01:02:58;12.00;;;4.32;;
84121;SDS011;74217;51.106;17.084;2023-11-21T01:05:46;7.68;;;4.63;;
84121;SDS011;74217;51.106;17.084;2023-11-21T01:08:31;7.40;;;4.57;;
84121;SDS011;74217;51.106;17.084;2023-11-21T01:11:16;6.88;;;4.60;;
84121;SDS011;74217;51.106;17.084;2023-11-21T01:14:02;6.60;;;4.13;;
84121;SDS011;74217;51.106;17.084;2023-11-21T01:16:49;9.38;;;5.15;;
84121;SDS011;74217;51.106;17.084;2023-11-21T01:19:35;9.50;;;4.35;;
84121;SDS011;74217;51.106;17.084;2023-11-21T01:22:21;8.43;;;4.70;;
84121;SDS011;74217;51.106;17.084;2023-11-21T01:25:10;9.25;;;5.45;;
84121;SDS011;74217;51.106;17.084;2023-11-21T01:27:56;8.70;;;4.80;;
84121;SDS011;74217;51.106;17.084;2023-11-21T01:30:41;10.45;;;5.18;;
84121;SDS011;74217;51.106;17.084;2023-11-21T01:33:25;10.15;;;4.75;;
84121;SDS011;74217;51.106;17.084;2023-11-21T01:36:10;8.27;;;5.70;;
84121;SDS011;74217;51.106;17.084;2023-11-21T01:38:55;10.60;;;5.30;;
84121;SDS011;74217;51.106;17.084;2023-11-21T01:41:40;10.00;;;4.43;;
84121;SDS011;74217;51.106;17.084;2023-11-21T01:44:24;5.78;;;4.63;;
84121;SDS011;74217;51.106;17.084;2023-11-21T01:47:09;9.95;;;5.25;;
84121;SDS011;74217;51.106;17.084;2023-11-21T01:49:55;7.97;;;4.20;;
84121;SDS011;74217;51.106;17.084;2023-11-21T01:52:40;9.85;;;4.35;;
84121;SDS011;74217;51.106;17.084;2023-11-21T01:55:25;5.10;;;3.75;;
84121;SDS011;74217;51.106;17.084;2023-11-21T01:58:11;7.55;;;4.63;;
84121;SDS011;74217;51.106;17.084;2023-11-21T02:01:00;6.80;;;5.25;;
84121;SDS011;74217;51.106;17.084;2023-11-21T02:03:46;7.45;;;6.15;;
84121;SDS011;74217;51.106;17.084;2023-11-21T02:06:31;5.60;;;4.03;;
84121;SDS011;74217;51.106;17.084;2023-11-21T02:09:22;6.47;;;4.47;;
84121;SDS011;74217;51.106;17.084;2023-11-21T02:12:08;5.93;;;4.65;;
84121;SDS011;74217;51.106;17.084;2023-11-21T02:14:54;7.80;;;4.32;;
84121;SDS011;74217;51.106;17.084;2023-11-21T02:17:43;6.25;;;3.78;;
84121;SDS011;74217;51.106;17.084;2023-11-21T02:20:30;6.90;;;4.40;;
84121;SDS011;74217;51.106;17.084;2023-11-21T02:23:16;7.00;;;3.97;;
84121;SDS011;74217;51.106;17.084;2023-11-21T02:26:03;5.88;;;3.75;;
84121;SDS011;74217;51.106;17.084;2023-11-21T02:28:48;6.22;;;3.85;;
84121;SDS011;74217;51.106;17.084;2023-11-21T02:31:36;5.32;;;3.75;;
84121;SDS011;74217;51.106;17.084;2023-11-21T02:34:23;5.75;;;4.07;;
84121;SDS011;74217;51.106;17.084;2023-11-21T02:37:08;8.25;;;3.97;;
84121;SDS011;74217;51.106;17.084;2023-11-21T02:39:53;6.45;;;3.80;;
84121;SDS011;74217;51.106;17.084;2023-11-21T02:42:41;6.40;;;4.07;;
84121;SDS011;74217;51.106;17.084;2023-11-21T02:45:28;7.80;;;4.10;;
84121;SDS011;74217;51.106;17.084;2023-11-21T02:48:16;9.35;;;4.88;;
84121;SDS011;74217;51.106;17.084;2023-11-21T02:51:01;7.07;;;5.18;;
84121;SDS011;74217;51.106;17.084;2023-11-21T02:53:47;7.72;;;5.00;;
84121;SDS011;74217;51.106;17.084;2023-11-21T02:56:31;8.65;;;5.25;;
84121;SDS011;74217;51.106;17.084;2023-11-21T02:59:16;11.10;;;5.38;;
84121;SDS011;74217;51.106;17.084;2023-11-21T03:02:01;8.27;;;4.88;;
84121;SDS011;74217;51.106;17.084;2023-11-21T03:04:45;10.02;;;4.80;;
84121;SDS011;74217;51.106;17.084;2023-11-21T03:10:16;5.97;;;4.82;;
84121;SDS011;74217;51.106;17.084;2023-11-21T03:13:01;10.75;;;6.07;;
84121;SDS011;74217;51.106;17.084;2023-11-21T03:15:46;11.00;;;5.85;;
84121;SDS011;74217;51.106;17.084;2023-11-21T03:18:31;11.30;;;5.90;;
84121;SDS011;74217;51.106;17.084;2023-11-21T03:21:15;9.90;;;5.78;;
84121;SDS011;74217;51.106;17.084;2023-11-21T03:24:00;10.02;;;6.65;;
84121;SDS011;74217;51.106;17.084;2023-11-21T03:26:45;11.70;;;6.00;;
84121;SDS011;74217;51.106;17.084;2023-11-21T03:29:30;7.72;;;5.93;;
84121;SDS011;74217;51.106;17.084;2023-11-21T03:32:15;10.88;;;6.20;;
84121;SDS011;74217;51.106;17.084;2023-11-21T03:35:00;11.30;;;7.30;;
84121;SDS011;74217;51.106;17.084;2023-11-21T03:37:46;12.27;;;6.18;;
84121;SDS011;74217;51.106;17.084;2023-11-21T03:40:31;10.75;;;7.18;;
84121;SDS011;74217;51.106;17.084;2023-11-21T03:43:16;12.43;;;6.25;;
84121;SDS011;74217;51.106;17.084;2023-11-21T03:46:00;8.15;;;5.75;;
84121;SDS011;74217;51.106;17.084;2023-11-21T03:48:45;11.25;;;7.45;;
84121;SDS011;74217;51.106;17.084;2023-11-21T03:51:30;10.65;;;5.65;;
84121;SDS011;74217;51.106;17.084;2023-11-21T03:54:14;7.47;;;5.72;;
84121;SDS011;74217;51.106;17.084;2023-11-21T03:56:59;10.65;;;5.20;;
84121;SDS011;74217;51.106;17.084;2023-11-21T03:59:43;7.43;;;5.38;;
84121;SDS011;74217;51.106;17.084;2023-11-21T04:02:28;9.30;;;5.32;;
84121;SDS011;74217;51.106;17.084;2023-11-21T04:05:14;13.93;;;6.65;;
84121;SDS011;74217;51.106;17.084;2023-11-21T04:07:58;10.18;;;6.03;;
84121;SDS011;74217;51.106;17.084;2023-11-21T04:10:43;11.18;;;5.68;;
84121;SDS011;74217;51.106;17.084;2023-11-21T04:13:27;9.93;;;5.80;;
84121;SDS011;74217;51.106;17.084;2023-11-21T04:16:11;9.52;;;5.47;;
84121;SDS011;74217;51.106;17.084;2023-11-21T04:18:56;7.32;;;5.32;;
84121;SDS011;74217;51.106;17.084;2023-11-21T04:21:41;10.45;;;5.47;;
84121;SDS011;74217;51.106;17.084;2023-11-21T04:24:26;7.45;;;4.95;;
84121;SDS011;74217;51.106;17.084;2023-11-21T04:27:11;7.38;;;5.18;;
84121;SDS011;74217;51.106;17.084;2023-11-21T04:29:57;9.23;;;5.38;;
84121;SDS011;74217;51.106;17.084;2023-11-21T04:32:41;10.65;;;6.05;;
84121;SDS011;74217;51.106;17.084;2023-11-21T04:35:26;8.95;;;5.18;;
84121;SDS011;74217;51.106;17.084;2023-11-21T04:38:10;10.25;;;5.28;;
84121;SDS011;74217;51.106;17.084;2023-11-21T04:40:55;11.43;;;5.68;;
84121;SDS011;74217;51.106;17.084;2023-11-21T04:43:39;6.68;;;5.18;;
84121;SDS011;74217;51.106;17.084;2023-11-21T04:46:24;7.38;;;4.90;;
84121;SDS011;74217;51.106;17.084;2023-11-21T04:49:08;8.63;;;5.57;;
84121;SDS011;74217;51.106;17.084;2023-11-21T04:51:53;8.73;;;4.65;;
84121;SDS011;74217;51.106;17.084;2023-11-21T04:54:38;8.90;;;5.53;;
84121;SDS011;74217;51.106;17.084;2023-11-21T04:57:23;7.13;;;5.03;;
84121;SDS011;74217;51.106;17.084;2023-11-21T05:00:09;7.68;;;4.55;;
84121;SDS011;74217;51.106;17.084;2023-11-21T05:02:54;7.47;;;5.10;;
84121;SDS011;74217;51.106;17.084;2023-11-21T05:05:38;8.07;;;5.28;;
84121;SDS011;74217;51.106;17.084;2023-11-21T05:08:23;7.03;;;5.60;;
84121;SDS011;74217;51.106;17.084;2023-11-21T05:11:08;7.75;;;5.20;;
84121;SDS011;74217;51.106;17.084;2023-11-21T05:13:55;7.45;;;6.13;;
84121;SDS011;74217;51.106;17.084;2023-11-21T05:16:41;9.05;;;6.30;;
84121;SDS011;74217;51.106;17.084;2023-11-21T05:19:26;10.00;;;5.95;;
84121;SDS011;74217;51.106;17.084;2023-11-21T05:22:12;11.52;;;6.25;;
84121;SDS011;74217;51.106;17.084;2023-11-21T05:24:57;8.02;;;5.93;;
84121;SDS011;74217;51.106;17.084;2023-11-21T05:27:46;10.43;;;7.82;;
84121;SDS011;74217;51.106;17.084;2023-11-21T05:30:33;8.73;;;6.07;;
84121;SDS011;74217;51.106;17.084;2023-11-21T05:33:18;7.50;;;5.90;;
84121;SDS011;74217;51.106;17.084;2023-11-21T05:36:03;8.27;;;6.80;;
84121;SDS011;74217;51.106;17.084;2023-11-21T05:38:49;15.02;;;6.68;;
84121;SDS011;74217;51.106;17.084;2023-11-21T05:41:33;7.25;;;5.70;;
84121;SDS011;74217;51.106;17.084;2023-11-21T05:44:20;11.63;;;6.20;;
84121;SDS011;74217;51.106;17.084;2023-11-21T05:47:04;9.65;;;5.90;;
84121;SDS011;74217;51.106;17.084;2023-11-21T05:49:51;9.57;;;6.13;;
84121;SDS011;74217;51.106;17.084;2023-11-21T05:52:36;9.60;;;6.53;;
84121;SDS011;74217;51.106;17.084;2023-11-21T05:55:23;12.50;;;6.82;;
84121;SDS011;74217;51.106;17.084;2023-11-21T05:58:09;8.73;;;6.25;;
84121;SDS011;74217;51.106;17.084;2023-11-21T06:00:57;9.27;;;6.45;;
84121;SDS011;74217;51.106;17.084;2023-11-21T06:03:42;10.90;;;7.40;;
84121;SDS011;74217;51.106;17.084;2023-11-21T06:06:27;11.00;;;6.38;;
84121;SDS011;74217;51.106;17.084;2023-11-21T06:09:13;9.85;;;6.78;;
84121;SDS011;74217;51.106;17.084;2023-11-21T06:11:58;9.00;;;6.55;;
84121;SDS011;74217;51.106;17.084;2023-11-21T06:14:43;10.27;;;6.38;;
84121;SDS011;74217;51.106;17.084;2023-11-21T06:17:27;8.10;;;6.25;;
84121;SDS011;74217;51.106;17.084;2023-11-21T06:20:13;9.80;;;5.88;;
84121;SDS011;74217;51.106;17.084;2023-11-21T06:22:58;8.73;;;6.00;;
84121;SDS011;74217;51.106;17.084;2023-11-21T06:25:49;7.50;;;6.03;;
84121;SDS011;74217;51.106;17.084;2023-11-21T06:28:34;8.63;;;6.28;;
84121;SDS011;74217;51.106;17.084;2023-11-21T06:31:23;9.40;;;5.72;;
84121;SDS011;74217;51.106;17.084;2023-11-21T06:34:10;7.65;;;5.40;;
84121;SDS011;74217;51.106;17.084;2023-11-21T06:36:56;8.23;;;6.43;;
84121;SDS011;74217;51.106;17.084;2023-11-21T06:39:40;7.68;;;5.80;;
84121;SDS011;74217;51.106;17.084;2023-11-21T06:42:25;10.23;;;6.22;;
84121;SDS011;74217;51.106;17.084;2023-11-21T06:45:14;10.25;;;6.07;;
84121;SDS011;74217;51.106;17.084;2023-11-21T06:48:01;9.73;;;6.22;;
84121;SDS011;74217;51.106;17.084;2023-11-21T06:50:47;11.77;;;7.22;;
84121;SDS011;74217;51.106;17.084;2023-11-21T06:53:31;11.10;;;5.57;;
84121;SDS011;74217;51.106;17.084;2023-11-21T06:56:17;8.27;;;5.38;;
84121;SDS011;74217;51.106;17.084;2023-11-21T06:59:02;10.02;;;6.00;;
84121;SDS011;74217;51.106;17.084;2023-11-21T07:01:50;9.95;;;6.00;;
84121;SDS011;74217;51.106;17.084;2023-11-21T07:04:35;10.07;;;6.20;;
84121;SDS011;74217;51.106;17.084;2023-11-21T07:07:21;10.65;;;7.18;;
84121;SDS011;74217;51.106;17.084;2023-11-21T07:10:08;8.60;;;6.32;;
84121;SDS011;74217;51.106;17.084;2023-11-21T07:12:54;12.32;;;7.57;;
84121;SDS011;74217;51.106;17.084;2023-11-21T07:15:38;9.60;;;6.25;;
84121;SDS011;74217;51.106;17.084;2023-11-21T07:18:23;10.20;;;6.82;;
84121;SDS011;74217;51.106;17.084;2023-11-21T07:21:09;10.07;;;6.97;;
84121;SDS011;74217;51.106;17.084;2023-11-21T07:23:58;12.48;;;7.00;;
84121;SDS011;74217;51.106;17.084;2023-11-21T07:26:53;10.07;;;6.45;;
84121;SDS011;74217;51.106;17.084;2023-11-21T07:29:40;11.23;;;6.93;;
84121;SDS011;74217;51.106;17.084;2023-11-21T07:32:25;13.90;;;6.47;;
84121;SDS011;74217;51.106;17.084;2023-11-21T07:35:09;11.55;;;7.80;;
84121;SDS011;74217;51.106;17.084;2023-11-21T07:37:54;9.93;;;6.88;;
84121;SDS011;74217;51.106;17.084;2023-11-21T07:40:38;10.70;;;7.38;;
84121;SDS011;74217;51.106;17.084;2023-11-21T07:43:23;13.40;;;7.65;;
84121;SDS011;74217;51.106;17.084;2023-11-21T07:46:07;13.90;;;8.82;;
84121;SDS011;74217;51.106;17.084;2023-11-21T07:48:53;12.65;;;7.43;;
84121;SDS011;74217;51.106;17.084;2023-11-21T07:51:38;10.63;;;7.57;;
84121;SDS011;74217;51.106;17.084;2023-11-21T07:54:23;10.77;;;6.85;;
84121;SDS011;74217;51.106;17.084;2023-11-21T07:57:08;11.35;;;7.90;;
84121;SDS011;74217;51.106;17.084;2023-11-21T07:59:55;10.75;;;7.18;;
84121;SDS011;74217;51.106;17.084;2023-11-21T08:02:41;12.07;;;6.63;;
84121;SDS011;74217;51.106;17.084;2023-11-21T08:05:30;10.95;;;6.47;;
84121;SDS011;74217;51.106;17.084;2023-11-21T08:08:15;9.55;;;5.38;;
84121;SDS011;74217;51.106;17.084;2023-11-21T08:11:02;12.18;;;6.35;;
84121;SDS011;74217;51.106;17.084;2023-11-21T08:13:48;12.32;;;7.47;;
84121;SDS011;74217;51.106;17.084;2023-11-21T08:16:33;10.75;;;6.28;;
84121;SDS011;74217;51.106;17.084;2023-11-21T08:19:18;8.07;;;6.15;;
84121;SDS011;74217;51.106;17.084;2023-11-21T08:22:03;9.40;;;6.85;;
84121;SDS011;74217;51.106;17.084;2023-11-21T08:24:48;9.52;;;6.60;;
84121;SDS011;74217;51.106;17.084;2023-11-21T08:27:34;11.40;;;7.55;;
84121;SDS011;74217;51.106;17.084;2023-11-21T08:30:19;12.13;;;7.10;;
84121;SDS011;74217;51.106;17.084;2023-11-21T08:33:05;8.50;;;6.43;;
84121;SDS011;74217;51.106;17.084;2023-11-21T08:35:49;13.52;;;7.18;;
84121;SDS011;74217;51.106;17.084;2023-11-21T08:38:35;14.00;;;8.43;;
84121;SDS011;74217;51.106;17.084;2023-11-21T08:41:23;14.68;;;7.35;;
84121;SDS011;74217;51.106;17.084;2023-11-21T08:44:08;15.27;;;7.90;;
84121;SDS011;74217;51.106;17.084;2023-11-21T08:46:52;8.32;;;7.25;;
84121;SDS011;74217;51.106;17.084;2023-11-21T08:49:37;10.90;;;6.40;;
84121;SDS011;74217;51.106;17.084;2023-11-21T08:52:22;11.70;;;6.32;;
84121;SDS011;74217;51.106;17.084;2023-11-21T08:55:07;9.50;;;6.13;;
84121;SDS011;74217;51.106;17.084;2023-11-21T08:57:52;10.10;;;6.65;;
84121;SDS011;74217;51.106;17.084;2023-11-21T09:00:36;13.00;;;6.45;;
84121;SDS011;74217;51.106;17.084;2023-11-21T09:03:22;10.20;;;5.95;;
84121;SDS011;74217;51.106;17.084;2023-11-21T09:06:07;11.05;;;6.28;;
84121;SDS011;74217;51.106;17.084;2023-11-21T09:11:38;11.88;;;7.65;;
84121;SDS011;74217;51.106;17.084;2023-11-21T09:14:23;11.52;;;6.18;;
84121;SDS011;74217;51.106;17.084;2023-11-21T09:17:09;12.00;;;6.93;;
84121;SDS011;74217;51.106;17.084;2023-11-21T09:19:57;10.25;;;6.18;;
84121;SDS011;74217;51.106;17.084;2023-11-21T09:22:41;11.55;;;6.28;;
84121;SDS011;74217;51.106;17.084;2023-11-21T09:25:26;11.63;;;6.85;;
84121;SDS011;74217;51.106;17.084;2023-11-21T09:30:57;7.85;;;6.43;;
84121;SDS011;74217;51.106;17.084;2023-11-21T09:33:45;10.38;;;7.10;;
84121;SDS011;74217;51.106;17.084;2023-11-21T09:36:30;14.02;;;7.75;;
84121;SDS011;74217;51.106;17.084;2023-11-21T09:39:14;10.98;;;8.18;;
84121;SDS011;74217;51.106;17.084;2023-11-21T09:42:04;15.02;;;7.43;;
84121;SDS011;74217;51.106;17.084;2023-11-21T09:48:13;12.23;;;7.43;;
84121;SDS011;74217;51.106;17.084;2023-11-21T09:50:58;9.75;;;7.30;;
84121;SDS011;74217;51.106;17.084;2023-11-21T09:53:44;11.57;;;7.03;;
84121;SDS011;74217;51.106;17.084;2023-11-21T09:56:30;9.77;;;5.75;;
84121;SDS011;74217;51.106;17.084;2023-11-21T09:59:16;8.57;;;5.90;;
84121;SDS011;74217;51.106;17.084;2023-11-21T10:02:01;10.65;;;5.75;;
84121;SDS011;74217;51.106;17.084;2023-11-21T10:04:47;8.52;;;5.90;;
84121;SDS011;74217;51.106;17.084;2023-11-21T10:07:32;9.23;;;5.93;;
84121;SDS011;74217;51.106;17.084;2023-11-21T10:10:19;7.45;;;5.55;;
84121;SDS011;74217;51.106;17.084;2023-11-21T10:13:06;12.23;;;6.07;;
84121;SDS011;74217;51.106;17.084;2023-11-21T10:15:55;9.20;;;6.00;;
84121;SDS011;74217;51.106;17.084;2023-11-21T10:18:40;10.15;;;4.90;;
84121;SDS011;74217;51.106;17.084;2023-11-21T10:21:25;8.68;;;5.53;;
84121;SDS011;74217;51.106;17.084;2023-11-21T10:24:09;8.02;;;5.13;;
84121;SDS011;74217;51.106;17.084;2023-11-21T10:26:55;7.93;;;5.93;;
84121;SDS011;74217;51.106;17.084;2023-11-21T10:29:40;8.57;;;5.47;;
84121;SDS011;74217;51.106;17.084;2023-11-21T10:32:29;12.43;;;5.78;;
84121;SDS011;74217;51.106;17.084;2023-11-21T10:35:16;7.10;;;4.90;;
84121;SDS011;74217;51.106;17.084;2023-11-21T10:38:01;10.02;;;5.70;;
84121;SDS011;74217;51.106;17.084;2023-11-21T10:40:47;10.20;;;6.43;;
84121;SDS011;74217;51.106;17.084;2023-11-21T10:43:33;13.30;;;9.60;;
84121;SDS011;74217;51.106;17.084;2023-11-21T10:46:18;15.18;;;9.80;;
84121;SDS011;74217;51.106;17.084;2023-11-21T10:49:04;18.45;;;10.38;;
84121;SDS011;74217;51.106;17.084;2023-11-21T10:51:48;19.40;;;11.75;;
84121;SDS011;74217;51.106;17.084;2023-11-21T10:54:33;14.55;;;9.57;;
84121;SDS011;74217;51.106;17.084;2023-11-21T10:57:20;15.98;;;10.02;;
84121;SDS011;74217;51.106;17.084;2023-11-21T11:00:08;16.55;;;11.05;;
84121;SDS011;74217;51.106;17.084;2023-11-21T11:02:57;19.10;;;12.38;;
84121;SDS011;74217;51.106;17.084;2023-11-21T11:05:44;22.27;;;13.98;;
84121;SDS011;74217;51.106;17.084;2023-11-21T11:08:46;24.33;;;14.48;;
84121;SDS011;74217;51.106;17.084;2023-11-21T11:11:33;25.50;;;15.70;;
84121;SDS011;74217;51.106;17.084;2023-11-21T11:14:20;28.15;;;15.57;;
84121;SDS011;74217;51.106;17.084;2023-11-21T11:17:09;24.10;;;15.23;;
84121;SDS011;74217;51.106;17.084;2023-11-21T11:19:54;27.88;;;16.13;;
84121;SDS011;74217;51.106;17.084;2023-11-21T11:38:07;23.77;;;13.80;;
84121;SDS011;74217;51.106;17.084;2023-11-21T11:40:53;24.65;;;14.45;;
84121;SDS011;74217;51.106;17.084;2023-11-21T11:43:38;27.13;;;15.63;;
84121;SDS011;74217;51.106;17.084;2023-11-21T11:46:44;25.50;;;14.60;;
84121;SDS011;74217;51.106;17.084;2023-11-21T11:49:30;23.80;;;14.35;;
84121;SDS011;74217;51.106;17.084;2023-11-21T11:52:35;27.88;;;15.35;;
84121;SDS011;74217;51.106;17.084;2023-11-21T11:55:24;27.02;;;16.02;;
84121;SDS011;74217;51.106;17.084;2023-11-21T11:58:09;24.88;;;15.20;;
84121;SDS011;74217;51.106;17.084;2023-11-21T12:00:55;23.17;;;14.60;;
84121;SDS011;74217;51.106;17.084;2023-11-21T12:03:40;22.80;;;13.35;;
84121;SDS011;74217;51.106;17.084;2023-11-21T12:06:34;22.25;;;13.90;;
84121;SDS011;74217;51.106;17.084;2023-11-21T12:09:20;21.38;;;12.30;;
84121;SDS011;74217;51.106;17.084;2023-11-21T12:12:05;22.17;;;13.18;;
84121;SDS011;74217;51.106;17.084;2023-11-21T12:14:50;23.65;;;12.52;;
84121;SDS011;74217;51.106;17.084;2023-11-21T12:17:35;24.40;;;14.07;;
84121;SDS011;74217;51.106;17.084;2023-11-21T12:20:21;22.90;;;13.57;;
84121;SDS011;74217;51.106;17.084;2023-11-21T12:23:06;22.77;;;13.07;;
84121;SDS011;74217;51.106;17.084;2023-11-21T12:25:53;20.98;;;13.40;;
84121;SDS011;74217;51.106;17.084;2023-11-21T12:28:38;19.05;;;12.65;;
84121;SDS011;74217;51.106;17.084;2023-11-21T12:31:23;19.73;;;12.90;;
84121;SDS011;74217;51.106;17.084;2023-11-21T12:34:07;21.90;;;13.40;;
84121;SDS011;74217;51.106;17.084;2023-11-21T12:36:55;17.35;;;12.10;;
84121;SDS011;74217;51.106;17.084;2023-11-21T12:39:40;16.02;;;11.20;;
84121;SDS011;74217;51.106;17.084;2023-11-21T12:42:24;17.45;;;11.48;;
84121;SDS011;74217;51.106;17.084;2023-11-21T12:45:10;20.50;;;12.77;;
84121;SDS011;74217;51.106;17.084;2023-11-21T12:48:02;17.55;;;12.40;;
84121;SDS011;74217;51.106;17.084;2023-11-21T12:50:51;18.40;;;12.23;;
84121;SDS011;74217;51.106;17.084;2023-11-21T12:53:37;13.68;;;9.95;;
84121;SDS011;74217;51.106;17.084;2023-11-21T12:56:23;16.08;;;11.27;;
84121;SDS011;74217;51.106;17.084;2023-11-21T12:59:08;17.63;;;12.90;;
84121;SDS011;74217;51.106;17.084;2023-11-21T13:01:57;15.40;;;11.13;;
84121;SDS011;74217;51.106;17.084;2023-11-21T13:04:44;15.88;;;9.70;;
84121;SDS011;74217;51.106;17.084;2023-11-21T13:07:44;15.40;;;10.52;;
84121;SDS011;74217;51.106;17.084;2023-11-21T13:10:34;11.50;;;9.50;;
84121;SDS011;74217;51.106;17.084;2023-11-21T13:13:20;12.52;;;10.00;;
84121;SDS011;74217;51.106;17.084;2023-11-21T13:16:06;11.25;;;8.80;;
84121;SDS011;74217;51.106;17.084;2023-11-21T13:18:52;14.35;;;9.77;;
84121;SDS011;74217;51.106;17.084;2023-11-21T13:21:37;10.90;;;9.18;;
84121;SDS011;74217;51.106;17.084;2023-11-21T13:24:23;10.93;;;9.45;;
84121;SDS011;74217;51.106;17.084;2023-11-21T13:27:08;12.95;;;8.98;;
84121;SDS011;74217;51.106;17.084;2023-11-21T13:29:54;11.93;;;8.65;;
84121;SDS011;74217;51.106;17.084;2023-11-21T13:32:39;11.90;;;8.88;;
84121;SDS011;74217;51.106;17.084;2023-11-21T13:35:24;11.77;;;9.57;;
84121;SDS011;74217;51.106;17.084;2023-11-21T13:38:22;13.52;;;9.43;;
84121;SDS011;74217;51.106;17.084;2023-11-21T13:41:07;13.32;;;9.32;;
84121;SDS011;74217;51.106;17.084;2023-11-21T13:43:54;11.80;;;8.55;;
84121;SDS011;74217;51.106;17.084;2023-11-21T13:46:47;12.63;;;8.68;;
84121;SDS011;74217;51.106;17.084;2023-11-21T13:49:32;11.60;;;8.23;;
84121;SDS011;74217;51.106;17.084;2023-11-21T13:52:23;11.57;;;8.95;;
84121;SDS011;74217;51.106;17.084;2023-11-21T13:55:11;12.07;;;9.60;;
84121;SDS011;74217;51.106;17.084;2023-11-21T13:58:00;14.43;;;9.20;;
84121;SDS011;74217;51.106;17.084;2023-11-21T14:00:45;11.18;;;9.43;;
84121;SDS011;74217;51.106;17.084;2023-11-21T14:03:31;11.73;;;8.68;;
84121;SDS011;74217;51.106;17.084;2023-11-21T14:06:29;10.88;;;9.25;;
84121;SDS011;74217;51.106;17.084;2023-11-21T14:09:22;12.15;;;9.10;;
84121;SDS011;74217;51.106;17.084;2023-11-21T14:12:17;10.30;;;7.60;;
84121;SDS011;74217;51.106;17.084;2023-11-21T14:15:01;10.10;;;7.75;;
84121;SDS011;74217;51.106;17.084;2023-11-21T14:17:52;10.57;;;7.95;;
84121;SDS011;74217;51.106;17.084;2023-11-21T14:20:37;10.07;;;8.20;;
84121;SDS011;74217;51.106;17.084;2023-11-21T14:23:28;10.00;;;7.93;;
84121;SDS011;74217;51.106;17.084;2023-11-21T14:26:19;9.07;;;8.00;;
84121;SDS011;74217;51.106;17.084;2023-11-21T14:29:05;10.90;;;9.45;;
84121;SDS011;74217;51.106;17.084;2023-11-21T14:31:50;11.68;;;10.45;;
84121;SDS011;74217;51.106;17.084;2023-11-21T14:34:37;11.52;;;8.73;;
84121;SDS011;74217;51.106;17.084;2023-11-21T14:37:22;12.98;;;9.05;;
84121;SDS011;74217;51.106;17.084;2023-11-21T14:40:07;13.00;;;9.20;;
84121;SDS011;74217;51.106;17.084;2023-11-21T14:42:52;13.35;;;9.40;;
84121;SDS011;74217;51.106;17.084;2023-11-21T14:45:38;10.60;;;8.60;;
84121;SDS011;74217;51.106;17.084;2023-11-21T14:48:23;11.52;;;9.57;;
84121;SDS011;74217;51.106;17.084;2023-11-21T14:51:27;10.60;;;8.65;;
84121;SDS011;74217;51.106;17.084;2023-11-21T14:54:15;10.00;;;8.02;;
84121;SDS011;74217;51.106;17.084;2023-11-21T14:57:10;11.30;;;8.38;;
84121;SDS011;74217;51.106;17.084;2023-11-21T15:00:02;9.02;;;7.30;;
84121;SDS011;74217;51.106;17.084;2023-11-21T15:02:53;9.90;;;8.20;;
84121;SDS011;74217;51.106;17.084;2023-11-21T15:05:38;11.25;;;9.05;;
84121;SDS011;74217;51.106;17.084;2023-11-21T15:08:24;12.65;;;9.27;;
84121;SDS011;74217;51.106;17.084;2023-11-21T15:11:16;15.38;;;11.55;;
84121;SDS011;74217;51.106;17.084;2023-11-21T15:14:01;16.38;;;10.52;;
84121;SDS011;74217;51.106;17.084;2023-11-21T15:16:52;18.85;;;11.15;;
84121;SDS011;74217;51.106;17.084;2023-11-21T15:19:41;20.95;;;13.45;;
84121;SDS011;74217;51.106;17.084;2023-11-21T15:22:27;16.33;;;11.35;;
84121;SDS011;74217;51.106;17.084;2023-11-21T15:25:13;15.45;;;10.75;;
84121;SDS011;74217;51.106;17.084;2023-11-21T15:27:58;13.30;;;10.02;;
84121;SDS011;74217;51.106;17.084;2023-11-21T15:30:43;14.23;;;10.75;;
84121;SDS011;74217;51.106;17.084;2023-11-21T15:33:31;14.32;;;10.05;;
84121;SDS011;74217;51.106;17.084;2023-11-21T15:36:16;12.35;;;10.25;;
84121;SDS011;74217;51.106;17.084;2023-11-21T15:39:00;14.07;;;10.10;;
84121;SDS011;74217;51.106;17.084;2023-11-21T15:41:46;12.52;;;10.18;;
84121;SDS011;74217;51.106;17.084;2023-11-21T15:44:31;11.93;;;10.63;;
84121;SDS011;74217;51.106;17.084;2023-11-21T15:47:18;16.63;;;10.25;;
84121;SDS011;74217;51.106;17.084;2023-11-21T15:50:03;15.63;;;10.40;;
84121;SDS011;74217;51.106;17.084;2023-11-21T15:52:52;14.50;;;10.27;;
84121;SDS011;74217;51.106;17.084;2023-11-21T15:55:38;13.98;;;9.95;;
84121;SDS011;74217;51.106;17.084;2023-11-21T15:58:26;17.17;;;10.23;;
84121;SDS011;74217;51.106;17.084;2023-11-21T16:01:11;13.98;;;10.07;;
84121;SDS011;74217;51.106;17.084;2023-11-21T16:03:57;14.82;;;10.02;;
84121;SDS011;74217;51.106;17.084;2023-11-21T16:06:45;15.43;;;9.35;;
84121;SDS011;74217;51.106;17.084;2023-11-21T16:12:15;16.98;;;10.63;;
84121;SDS011;74217;51.106;17.084;2023-11-21T16:15:02;16.40;;;10.68;;
84121;SDS011;74217;51.106;17.084;2023-11-21T16:17:52;17.02;;;10.98;;
84121;SDS011;74217;51.106;17.084;2023-11-21T16:20:37;14.05;;;10.70;;
84121;SDS011;74217;51.106;17.084;2023-11-21T16:23:22;12.80;;;9.63;;
84121;SDS011;74217;51.106;17.084;2023-11-21T16:26:10;13.57;;;10.90;;
84121;SDS011;74217;51.106;17.084;2023-11-21T16:28:55;14.07;;;11.15;;
84121;SDS011;74217;51.106;17.084;2023-11-21T16:31:41;15.85;;;10.77;;
84121;SDS011;74217;51.106;17.084;2023-11-21T16:34:26;13.32;;;9.88;;
84121;SDS011;74217;51.106;17.084;2023-11-21T16:37:13;13.52;;;10.05;;
84121;SDS011;74217;51.106;17.084;2023-11-21T16:39:58;11.93;;;9.18;;
84121;SDS011;74217;51.106;17.084;2023-11-21T16:42:43;13.43;;;10.10;;
84121;SDS011;74217;51.106;17.084;2023-11-21T16:45:28;12.40;;;9.30;;